Time,TemperatureF,DewpointF,PressureIn,WindDirection,WindDirectionDegrees,WindSpeedMPH,WindSpeedGustMPH,Humidity,HourlyPrecipIn,Conditions,Clouds,dailyrainin,SoftwareType,DateUTC
2013-01-07 00:00:00,64.9,63.4,30.15,North,360,1.0,2.0,95,0.00,,,0.00,Wunderground v.1.15,2013-01-07 05:00:00,
2013-01-07 00:02:00,64.9,63.4,30.15,North,360,1.0,9.0,95,0.00,,,0.00,Wunderground v.1.15,2013-01-07 05:02:00,
2013-01-07 00:04:00,64.9,63.4,30.15,North,9,1.0,9.0,95,0.00,,,0.00,Wunderground v.1.15,2013-01-07 05:04:00,
2013-01-07 00:05:00,64.9,63.4,30.15,North,9,1.0,9.0,95,0.00,,,0.00,Wunderground v.1.15,2013-01-07 05:05:00,
2013-01-07 00:10:00,65.0,63.8,30.15,North,360,1.0,2.0,96,0.00,,,0.00,Wunderground v.1.15,2013-01-07 05:10:00,
2013-01-07 00:16:00,65.0,63.8,30.15,North,5,1.0,4.0,96,0.00,,,0.00,Wunderground v.1.15,2013-01-07 05:16:00,
2013-01-07 00:21:00,65.0,63.8,30.15,NNW,334,1.0,1.0,96,0.00,,,0.00,Wunderground v.1.15,2013-01-07 05:21:00,
2013-01-07 00:27:00,65.0,63.5,30.15,North,351,1.0,6.0,95,0.00,,,0.00,Wunderground v.1.15,2013-01-07 05:27:00,
2013-01-07 00:32:00,65.0,63.5,30.16,North,355,1.0,1.0,95,0.00,,,0.00,Wunderground v.1.15,2013-01-07 05:32:00,
2013-01-07 00:38:00,65.0,63.5,30.16,North,355,0.0,1.0,95,0.00,,,0.00,Wunderground v.1.15,2013-01-07 05:38:00,
2013-01-07 00:43:00,65.0,63.5,30.15,North,355,0.0,0.0,95,0.00,,,0.00,Wunderground v.1.15,2013-01-07 05:43:00,
2013-01-07 00:49:00,65.0,63.5,30.15,North,355,0.0,0.0,95,0.00,,,0.00,Wunderground v.1.15,2013-01-07 05:49:00,
2013-01-07 00:54:00,65.0,63.5,30.15,North,355,0.0,0.0,95,0.00,,,0.00,Wunderground v.1.15,2013-01-07 05:54:00,
2013-01-07 01:00:00,65.0,63.5,30.15,North,355,0.0,0.0,95,0.00,,,0.00,Wunderground v.1.15,2013-01-07 06:00:00,
2013-01-07 01:05:00,65.0,63.8,30.15,North,355,0.0,5.0,96,0.00,,,0.00,Wunderground v.1.15,2013-01-07 06:05:00,
2013-01-07 01:10:00,64.9,63.7,30.15,North,355,0.0,0.0,96,0.00,,,0.00,Wunderground v.1.15,2013-01-07 06:10:00,
2013-01-07 01:16:00,64.9,63.7,30.14,North,355,0.0,0.0,96,0.00,,,0.00,Wunderground v.1.15,2013-01-07 06:16:00,
2013-01-07 01:22:00,64.9,63.4,30.14,North,355,0.0,0.0,95,0.00,,,0.00,Wunderground v.1.15,2013-01-07 06:22:00,
2013-01-07 01:27:00,64.9,63.4,30.14,North,355,0.0,0.0,95,0.00,,,0.00,Wunderground v.1.15,2013-01-07 06:27:00,
2013-01-07 01:32:00,64.9,63.7,30.14,North,355,0.0,0.0,96,0.00,,,0.00,Wunderground v.1.15,2013-01-07 06:32:00,
2013-01-07 01:38:00,64.9,63.7,30.13,North,355,0.0,0.0,96,0.00,,,0.00,Wunderground v.1.15,2013-01-07 06:38:00,
2013-01-07 01:43:00,64.8,63.6,30.13,North,355,0.0,1.0,96,0.00,,,0.00,Wunderground v.1.15,2013-01-07 06:43:00,
2013-01-07 01:49:00,64.8,63.6,30.13,North,355,0.0,0.0,96,0.00,,,0.00,Wunderground v.1.15,2013-01-07 06:49:00,
2013-01-07 01:54:00,64.8,63.6,30.13,North,355,0.0,0.0,96,0.00,,,0.00,Wunderground v.1.15,2013-01-07 06:54:00,
2013-01-07 02:00:00,64.8,63.6,30.13,North,355,0.0,0.0,96,0.00,,,0.00,Wunderground v.1.15,2013-01-07 07:00:00,
2013-01-07 02:05:00,64.8,63.6,30.13,North,355,0.0,2.0,96,0.00,,,0.00,Wunderground v.1.15,2013-01-07 07:05:00,
2013-01-07 02:10:00,64.9,63.7,30.13,North,355,0.0,0.0,96,0.00,,,0.00,Wunderground v.1.15,2013-01-07 07:10:00,
2013-01-07 02:16:00,64.9,63.7,30.14,North,355,0.0,0.0,96,0.00,,,0.00,Wunderground v.1.15,2013-01-07 07:16:00,
2013-01-07 02:21:00,64.9,63.7,30.14,North,355,0.0,0.0,96,0.00,,,0.00,Wunderground v.1.15,2013-01-07 07:21:00,
2013-01-07 02:27:00,65.0,63.8,30.13,North,355,0.0,0.0,96,0.00,,,0.00,Wunderground v.1.15,2013-01-07 07:27:00,
2013-01-07 02:32:00,65.0,63.8,30.13,North,355,0.0,0.0,96,0.00,,,0.00,Wunderground v.1.15,2013-01-07 07:32:00,
2013-01-07 02:38:00,65.1,63.9,30.14,North,355,0.0,0.0,96,0.00,,,0.00,Wunderground v.1.15,2013-01-07 07:38:00,
2013-01-07 02:44:00,65.1,63.9,30.13,North,355,0.0,0.0,96,0.00,,,0.00,Wunderground v.1.15,2013-01-07 07:44:00,
2013-01-07 02:49:00,65.1,63.9,30.13,North,355,0.0,0.0,96,0.00,,,0.00,Wunderground v.1.15,2013-01-07 07:49:00,
2013-01-07 02:54:00,65.1,63.9,30.13,North,355,0.0,0.0,96,0.00,,,0.00,Wunderground v.1.15,2013-01-07 07:54:00,
2013-01-07 03:00:00,65.1,63.9,30.13,North,355,0.0,0.0,96,0.00,,,0.00,Wunderground v.1.15,2013-01-07 08:00:00,
2013-01-07 03:06:00,65.1,63.9,30.13,North,355,0.0,0.0,96,0.00,,,0.00,Wunderground v.1.15,2013-01-07 08:06:00,
2013-01-07 03:12:00,65.1,63.9,30.13,North,355,0.0,0.0,96,0.00,,,0.00,Wunderground v.1.15,2013-01-07 08:12:00,
2013-01-07 03:17:00,65.1,63.9,30.13,North,355,0.0,0.0,96,0.00,,,0.00,Wunderground v.1.15,2013-01-07 08:17:00,
2013-01-07 03:23:00,65.1,63.9,30.14,North,355,0.0,0.0,96,0.00,,,0.00,Wunderground v.1.15,2013-01-07 08:23:00,
2013-01-07 03:28:00,65.1,63.9,30.14,North,355,0.0,0.0,96,0.00,,,0.00,Wunderground v.1.15,2013-01-07 08:28:00,
2013-01-07 03:34:00,65.1,63.9,30.14,North,355,0.0,0.0,96,0.00,,,0.00,Wunderground v.1.15,2013-01-07 08:34:00,
2013-01-07 03:40:00,65.1,63.9,30.14,North,355,0.0,0.0,96,0.00,,,0.00,Wunderground v.1.15,2013-01-07 08:40:00,
2013-01-07 03:46:00,65.1,63.9,30.14,North,355,0.0,0.0,96,0.00,,,0.00,Wunderground v.1.15,2013-01-07 08:46:00,
2013-01-07 03:51:00,65.0,63.8,30.14,North,355,0.0,0.0,96,0.00,,,0.00,Wunderground v.1.15,2013-01-07 08:51:00,
2013-01-07 03:57:00,65.0,63.8,30.13,North,355,0.0,0.0,96,0.00,,,0.00,Wunderground v.1.15,2013-01-07 08:57:00,
2013-01-07 04:02:00,64.9,63.7,30.13,North,355,0.0,1.0,96,0.00,,,0.00,Wunderground v.1.15,2013-01-07 09:02:00,
2013-01-07 04:08:00,64.7,63.5,30.14,North,5,0.0,3.0,96,0.00,,,0.00,Wunderground v.1.15,2013-01-07 09:08:00,
2013-01-07 04:13:00,64.6,63.1,30.14,North,5,1.0,1.0,95,0.00,,,0.00,Wunderground v.1.15,2013-01-07 09:13:00,
2013-01-07 04:18:00,64.5,63.0,30.14,North,9,1.0,1.0,95,0.00,,,0.00,Wunderground v.1.15,2013-01-07 09:18:00,
2013-01-07 04:24:00,64.4,62.9,30.14,North,9,0.0,2.0,95,0.00,,,0.00,Wunderground v.1.15,2013-01-07 09:24:00,
2013-01-07 04:29:00,64.3,62.8,30.14,North,9,0.0,0.0,95,0.00,,,0.00,Wunderground v.1.15,2013-01-07 09:29:00,
2013-01-07 04:35:00,64.2,62.7,30.14,North,5,0.0,3.0,95,0.00,,,0.00,Wunderground v.1.15,2013-01-07 09:35:00,
2013-01-07 04:40:00,64.2,62.7,30.14,North,360,1.0,1.0,95,0.00,,,0.00,Wunderground v.1.15,2013-01-07 09:40:00,
2013-01-07 04:46:00,64.1,62.6,30.13,North,5,1.0,2.0,95,0.00,,,0.00,Wunderground v.1.15,2013-01-07 09:46:00,
2013-01-07 04:52:00,64.0,62.5,30.14,North,5,1.0,1.0,95,0.00,,,0.00,Wunderground v.1.15,2013-01-07 09:52:00,
2013-01-07 04:57:00,63.9,62.4,30.14,North,9,1.0,3.0,95,0.00,,,0.00,Wunderground v.1.15,2013-01-07 09:57:00,
2013-01-07 05:04:00,63.8,62.3,30.13,East,80,1.0,3.0,95,0.00,,,0.00,Wunderground v.1.15,2013-01-07 10:04:00,
2013-01-07 05:09:00,63.6,62.1,30.14,ENE,76,1.0,1.0,95,0.00,,,0.00,Wunderground v.1.15,2013-01-07 10:09:00,
2013-01-07 05:15:00,63.4,61.6,30.14,North,10,1.0,2.0,94,0.00,,,0.00,Wunderground v.1.15,2013-01-07 10:15:00,
2013-01-07 05:21:00,63.3,61.5,30.14,ENE,74,1.0,3.0,94,0.00,,,0.00,Wunderground v.1.15,2013-01-07 10:21:00,
2013-01-07 05:26:00,63.1,61.3,30.15,NE,43,2.0,7.0,94,0.00,,,0.00,Wunderground v.1.15,2013-01-07 10:26:00,
2013-01-07 05:32:00,63.0,61.2,30.15,NNE,19,2.0,2.0,94,0.00,,,0.00,Wunderground v.1.15,2013-01-07 10:32:00,
2013-01-07 05:38:00,63.0,61.2,30.15,NNW,341,1.0,4.0,94,0.00,,,0.00,Wunderground v.1.15,2013-01-07 10:38:00,
2013-01-07 05:43:00,62.8,61.0,30.16,NE,37,2.0,3.0,94,0.00,,,0.00,Wunderground v.1.15,2013-01-07 10:43:00,
2013-01-07 05:49:00,62.7,60.9,30.16,North,360,2.0,3.0,94,0.00,,,0.00,Wunderground v.1.15,2013-01-07 10:49:00,
2013-01-07 05:54:00,62.5,60.4,30.16,NNE,29,2.0,4.0,93,0.00,,,0.00,Wunderground v.1.15,2013-01-07 10:54:00,
2013-01-07 06:00:00,62.5,60.7,30.16,NNE,28,1.0,1.0,94,0.00,,,0.00,Wunderground v.1.15,2013-01-07 11:00:00,
2013-01-07 06:05:00,62.3,60.2,30.16,North,351,1.0,5.0,93,0.00,,,0.00,Wunderground v.1.15,2013-01-07 11:05:00,
2013-01-07 06:11:00,62.1,60.1,30.16,NNE,21,2.0,4.0,93,0.00,,,0.00,Wunderground v.1.15,2013-01-07 11:11:00,
2013-01-07 06:17:00,62.0,60.0,30.16,NW,315,2.0,7.0,93,0.00,,,0.00,Wunderground v.1.15,2013-01-07 11:17:00,
2013-01-07 06:22:00,61.8,59.8,30.16,North,10,3.0,4.0,93,0.00,,,0.00,Wunderground v.1.15,2013-01-07 11:22:00,
2013-01-07 06:28:00,61.7,59.7,30.17,NNE,26,2.0,4.0,93,0.00,,,0.00,Wunderground v.1.15,2013-01-07 11:28:00,
2013-01-07 06:33:00,61.7,59.4,30.17,NNE,26,2.0,6.0,92,0.00,,,0.00,Wunderground v.1.15,2013-01-07 11:33:00,
2013-01-07 06:39:00,61.7,59.7,30.17,ENE,57,2.0,6.0,93,0.00,,,0.00,Wunderground v.1.15,2013-01-07 11:39:00,
2013-01-07 06:44:00,61.7,59.7,30.17,North,355,1.0,4.0,93,0.00,,,0.00,Wunderground v.1.15,2013-01-07 11:44:00,
2013-01-07 06:50:00,61.7,59.7,30.17,NE,35,2.0,2.0,93,0.00,,,0.00,Wunderground v.1.15,2013-01-07 11:50:00,
2013-01-07 06:55:00,61.7,59.7,30.17,East,96,1.0,2.0,93,0.00,,,0.00,Wunderground v.1.15,2013-01-07 11:55:00,
2013-01-07 07:00:00,61.8,59.8,30.17,North,360,1.0,5.0,93,0.00,,,0.00,Wunderground v.1.15,2013-01-07 12:00:00,
2013-01-07 07:06:00,61.8,59.5,30.17,NE,39,1.0,5.0,92,0.00,,,0.00,Wunderground v.1.15,2013-01-07 12:06:00,
2013-01-07 07:11:00,61.8,59.8,30.18,NNE,30,2.0,2.0,93,0.00,,,0.00,Wunderground v.1.15,2013-01-07 12:11:00,
2013-01-07 07:17:00,61.8,59.5,30.19,NE,36,2.0,5.0,92,0.00,,,0.00,Wunderground v.1.15,2013-01-07 12:17:00,
2013-01-07 07:22:00,61.8,59.5,30.19,NE,34,1.0,2.0,92,0.00,,,0.00,Wunderground v.1.15,2013-01-07 12:22:00,
2013-01-07 07:27:00,61.7,59.4,30.19,ENE,76,1.0,4.0,92,0.00,,,0.00,Wunderground v.1.15,2013-01-07 12:27:00,
2013-01-07 07:33:00,61.6,59.3,30.19,NNE,26,1.0,1.0,92,0.00,,,0.00,Wunderground v.1.15,2013-01-07 12:33:00,
2013-01-07 07:38:00,61.6,59.3,30.19,ESE,109,1.0,4.0,92,0.00,,,0.00,Wunderground v.1.15,2013-01-07 12:38:00,
2013-01-07 07:44:00,61.4,58.7,30.19,East,82,2.0,4.0,91,0.00,,,0.00,Wunderground v.1.15,2013-01-07 12:44:00,
2013-01-07 07:49:00,61.4,58.7,30.19,NNW,338,2.0,2.0,91,0.00,,,0.00,Wunderground v.1.15,2013-01-07 12:49:00,
2013-01-07 07:55:00,61.4,58.7,30.19,NNE,25,1.0,3.0,91,0.00,,,0.00,Wunderground v.1.15,2013-01-07 12:55:00,
2013-01-07 08:01:00,61.3,58.7,30.19,ENE,60,2.0,5.0,91,0.00,,,0.00,Wunderground v.1.15,2013-01-07 13:01:00,
2013-01-07 08:06:00,61.3,59.0,30.19,North,355,2.0,5.0,92,0.00,,,0.00,Wunderground v.1.15,2013-01-07 13:06:00,
2013-01-07 08:12:00,61.3,59.0,30.19,ENE,71,1.0,3.0,92,0.00,,,0.00,Wunderground v.1.15,2013-01-07 13:12:00,
2013-01-07 08:17:00,61.2,58.9,30.20,ENE,57,1.0,3.0,92,0.00,,,0.00,Wunderground v.1.15,2013-01-07 13:17:00,
2013-01-07 08:23:00,61.1,58.8,30.20,NE,52,1.0,4.0,92,0.00,,,0.00,Wunderground v.1.15,2013-01-07 13:23:00,
2013-01-07 08:28:00,61.0,58.4,30.21,NW,325,1.0,4.0,91,0.00,,,0.00,Wunderground v.1.15,2013-01-07 13:28:00,
2013-01-07 08:35:00,60.8,58.2,30.21,North,355,1.0,4.0,91,0.00,,,0.00,Wunderground v.1.15,2013-01-07 13:35:00,
2013-01-07 08:41:00,60.7,58.1,30.21,NE,56,1.0,1.0,91,0.00,,,0.00,Wunderground v.1.15,2013-01-07 13:41:00,
2013-01-07 08:46:00,60.7,58.1,30.21,NE,56,0.0,1.0,91,0.00,,,0.00,Wunderground v.1.15,2013-01-07 13:46:00,
2013-01-07 08:52:00,60.6,58.0,30.22,NE,49,1.0,4.0,91,0.00,,,0.00,Wunderground v.1.15,2013-01-07 13:52:00,
2013-01-07 08:57:00,60.5,57.9,30.22,NNW,340,1.0,4.0,91,0.00,,,0.00,Wunderground v.1.15,2013-01-07 13:57:00,
2013-01-07 09:03:00,60.5,57.9,30.22,East,80,1.0,7.0,91,0.00,,,0.00,Wunderground v.1.15,2013-01-07 14:03:00,
2013-01-07 09:08:00,60.4,57.5,30.22,ESE,104,1.0,7.0,90,0.00,,,0.00,Wunderground v.1.15,2013-01-07 14:08:00,
2013-01-07 09:14:00,60.4,57.5,30.23,ENE,70,1.0,2.0,90,0.00,,,0.00,Wunderground v.1.15,2013-01-07 14:14:00,
2013-01-07 09:19:00,60.4,57.1,30.22,ENE,67,0.0,1.0,89,0.00,,,0.00,Wunderground v.1.15,2013-01-07 14:19:00,
2013-01-07 09:25:00,60.5,57.2,30.23,NE,46,1.0,2.0,89,0.00,,,0.00,Wunderground v.1.15,2013-01-07 14:25:00,
2013-01-07 09:30:00,60.6,57.0,30.23,NE,46,1.0,1.0,88,0.00,,,0.00,Wunderground v.1.15,2013-01-07 14:30:00,
2013-01-07 09:36:00,60.7,56.8,30.22,NE,36,1.0,2.0,87,0.00,,,0.00,Wunderground v.1.15,2013-01-07 14:36:00,
2013-01-07 09:41:00,60.7,56.8,30.23,ENE,74,1.0,3.0,87,0.00,,,0.00,Wunderground v.1.15,2013-01-07 14:41:00,
2013-01-07 09:47:00,60.7,56.8,30.23,ESE,107,1.0,3.0,87,0.00,,,0.00,Wunderground v.1.15,2013-01-07 14:47:00,
2013-01-07 09:53:00,60.8,56.6,30.23,North,349,1.0,3.0,86,0.00,,,0.00,Wunderground v.1.15,2013-01-07 14:53:00,
2013-01-07 09:59:00,60.8,56.6,30.23,NE,44,1.0,3.0,86,0.00,,,0.00,Wunderground v.1.15,2013-01-07 14:59:00,
2013-01-07 10:05:00,61.0,56.8,30.22,NNE,20,1.0,5.0,86,0.00,,,0.00,Wunderground v.1.15,2013-01-07 15:05:00,
2013-01-07 10:10:00,61.1,56.9,30.23,ENE,60,1.0,1.0,86,0.00,,,0.00,Wunderground v.1.15,2013-01-07 15:10:00,
2013-01-07 10:15:00,61.3,57.1,30.23,NNE,15,0.0,1.0,86,0.00,,,0.00,Wunderground v.1.15,2013-01-07 15:15:00,
2013-01-07 10:21:00,61.5,56.6,30.23,ENE,67,1.0,4.0,84,0.00,,,0.00,Wunderground v.1.15,2013-01-07 15:21:00,
2013-01-07 10:27:00,61.5,56.6,30.23,NNE,31,2.0,4.0,84,0.00,,,0.00,Wunderground v.1.15,2013-01-07 15:27:00,
2013-01-07 10:32:00,61.5,56.6,30.23,NNE,21,1.0,2.0,84,0.00,,,0.00,Wunderground v.1.15,2013-01-07 15:32:00,
2013-01-07 10:38:00,61.5,56.6,30.23,NE,42,1.0,2.0,84,0.00,,,0.00,Wunderground v.1.15,2013-01-07 15:38:00,
2013-01-07 10:44:00,61.5,56.9,30.23,NE,56,0.0,1.0,85,0.00,,,0.00,Wunderground v.1.15,2013-01-07 15:44:00,
2013-01-07 10:49:00,61.6,56.7,30.23,NE,44,0.0,0.0,84,0.00,,,0.00,Wunderground v.1.15,2013-01-07 15:49:00,
2013-01-07 10:55:00,61.7,56.5,30.23,NE,42,0.0,0.0,83,0.00,,,0.00,Wunderground v.1.15,2013-01-07 15:55:00,
2013-01-07 11:00:00,61.6,56.4,30.22,East,83,0.0,6.0,83,0.00,,,0.00,Wunderground v.1.15,2013-01-07 16:00:00,
2013-01-07 11:06:00,61.5,56.0,30.21,East,84,1.0,6.0,82,0.00,,,0.00,Wunderground v.1.15,2013-01-07 16:06:00,
2013-01-07 11:12:00,61.4,55.9,30.21,East,91,1.0,1.0,82,0.00,,,0.00,Wunderground v.1.15,2013-01-07 16:12:00,
2013-01-07 11:17:00,61.5,56.0,30.21,ESE,118,1.0,6.0,82,0.00,,,0.00,Wunderground v.1.15,2013-01-07 16:17:00,
2013-01-07 11:23:00,61.5,56.3,30.21,NE,44,2.0,3.0,83,0.00,,,0.00,Wunderground v.1.15,2013-01-07 16:23:00,
2013-01-07 11:29:00,61.7,56.5,30.21,NE,46,2.0,4.0,83,0.00,,,0.00,Wunderground v.1.15,2013-01-07 16:29:00,
2013-01-07 11:34:00,61.9,56.7,30.21,East,101,1.0,2.0,83,0.00,,,0.00,Wunderground v.1.15,2013-01-07 16:34:00,
2013-01-07 11:40:00,62.3,56.4,30.20,North,10,1.0,1.0,81,0.00,,,0.00,Wunderground v.1.15,2013-01-07 16:40:00,
2013-01-07 11:45:00,62.5,56.6,30.21,ESE,103,1.0,4.0,81,0.00,,,0.00,Wunderground v.1.15,2013-01-07 16:45:00,
2013-01-07 11:51:00,62.9,56.6,30.20,ENE,73,1.0,6.0,80,0.00,,,0.00,Wunderground v.1.15,2013-01-07 16:51:00,
2013-01-07 11:57:00,63.1,57.2,30.20,NNE,23,2.0,6.0,81,0.00,,,0.00,Wunderground v.1.15,2013-01-07 16:57:00,
2013-01-07 12:02:00,63.3,57.0,30.20,East,85,2.0,6.0,80,0.00,,,0.00,Wunderground v.1.15,2013-01-07 17:02:00,
2013-01-07 12:08:00,63.1,56.5,30.20,ENE,77,3.0,6.0,79,0.00,,,0.00,Wunderground v.1.15,2013-01-07 17:08:00,
2013-01-07 12:14:00,62.8,56.5,30.19,NE,52,3.0,5.0,80,0.00,,,0.00,Wunderground v.1.15,2013-01-07 17:14:00,
2013-01-07 12:19:00,62.5,56.2,30.19,ESE,113,3.0,4.0,80,0.00,,,0.00,Wunderground v.1.15,2013-01-07 17:19:00,
2013-01-07 12:25:00,62.4,56.5,30.19,ENE,72,1.0,4.0,81,0.00,,,0.00,Wunderground v.1.15,2013-01-07 17:25:00,
2013-01-07 12:31:00,62.3,56.4,30.18,East,92,1.0,3.0,81,0.00,,,0.00,Wunderground v.1.15,2013-01-07 17:31:00,
2013-01-07 12:37:00,62.3,56.4,30.18,East,84,1.0,3.0,81,0.00,,,0.00,Wunderground v.1.15,2013-01-07 17:37:00,
2013-01-07 12:42:00,62.2,56.6,30.18,East,87,1.0,2.0,82,0.00,,,0.00,Wunderground v.1.15,2013-01-07 17:42:00,
2013-01-07 12:48:00,62.3,56.7,30.18,NE,44,0.0,2.0,82,0.00,,,0.00,Wunderground v.1.15,2013-01-07 17:48:00,
2013-01-07 12:53:00,62.3,56.7,30.18,ENE,59,0.0,1.0,82,0.00,,,0.00,Wunderground v.1.15,2013-01-07 17:53:00,
2013-01-07 12:59:00,62.4,56.8,30.17,East,94,0.0,0.0,82,0.00,,,0.00,Wunderground v.1.15,2013-01-07 17:59:00,
2013-01-07 13:05:00,62.5,56.9,30.17,East,84,0.0,6.0,82,0.00,,,0.00,Wunderground v.1.15,2013-01-07 18:05:00,
2013-01-07 13:10:00,62.6,56.7,30.17,East,79,1.0,4.0,81,0.00,,,0.00,Wunderground v.1.15,2013-01-07 18:10:00,
2013-01-07 13:16:00,62.7,57.1,30.17,ENE,67,1.0,4.0,82,0.00,,,0.00,Wunderground v.1.15,2013-01-07 18:16:00,
2013-01-07 13:21:00,62.9,57.0,30.16,ESE,113,0.0,1.0,81,0.00,,,0.00,Wunderground v.1.15,2013-01-07 18:21:00,
2013-01-07 13:27:00,63.1,57.5,30.16,ESE,111,0.0,1.0,82,0.00,,,0.00,Wunderground v.1.15,2013-01-07 18:27:00,
2013-01-07 13:32:00,63.2,57.3,30.16,East,101,0.0,0.0,81,0.00,,,0.00,Wunderground v.1.15,2013-01-07 18:32:00,
2013-01-07 13:38:00,63.4,57.5,30.16,East,96,0.0,4.0,81,0.00,,,0.00,Wunderground v.1.15,2013-01-07 18:38:00,
2013-01-07 13:44:00,63.4,57.1,30.16,East,96,1.0,1.0,80,0.00,,,0.00,Wunderground v.1.15,2013-01-07 18:44:00,
2013-01-07 13:49:00,63.5,57.2,30.16,East,90,1.0,1.0,80,0.00,,,0.00,Wunderground v.1.15,2013-01-07 18:49:00,
2013-01-07 13:55:00,63.7,57.4,30.16,NNE,29,1.0,3.0,80,0.00,,,0.00,Wunderground v.1.15,2013-01-07 18:55:00,
2013-01-07 14:00:00,63.9,57.6,30.16,East,88,1.0,3.0,80,0.00,,,0.00,Wunderground v.1.15,2013-01-07 19:00:00,
2013-01-07 14:06:00,64.1,57.5,30.15,East,79,0.0,3.0,79,0.00,,,0.00,Wunderground v.1.15,2013-01-07 19:06:00,
2013-01-07 14:12:00,64.3,57.6,30.15,East,91,0.0,0.0,79,0.00,,,0.00,Wunderground v.1.15,2013-01-07 19:12:00,
2013-01-07 14:18:00,64.4,57.7,30.15,East,96,0.0,4.0,79,0.00,,,0.00,Wunderground v.1.15,2013-01-07 19:18:00,
2013-01-07 14:23:00,64.4,57.7,30.15,East,96,1.0,2.0,79,0.00,,,0.00,Wunderground v.1.15,2013-01-07 19:23:00,
2013-01-07 14:29:00,64.5,58.2,30.15,East,95,1.0,2.0,80,0.00,,,0.00,Wunderground v.1.15,2013-01-07 19:29:00,
2013-01-07 14:34:00,64.7,58.0,30.15,East,95,0.0,0.0,79,0.00,,,0.00,Wunderground v.1.15,2013-01-07 19:34:00,
2013-01-07 14:40:00,64.8,58.1,30.15,East,96,0.0,0.0,79,0.00,,,0.00,Wunderground v.1.15,2013-01-07 19:40:00,
2013-01-07 14:46:00,64.9,58.2,30.15,East,95,0.0,0.0,79,0.00,,,0.00,Wunderground v.1.15,2013-01-07 19:46:00,
2013-01-07 14:51:00,64.9,58.6,30.15,East,96,0.0,1.0,80,0.00,,,0.00,Wunderground v.1.15,2013-01-07 19:51:00,
2013-01-07 14:57:00,64.9,58.2,30.15,East,101,1.0,3.0,79,0.00,,,0.00,Wunderground v.1.15,2013-01-07 19:57:00,
2013-01-07 15:02:00,64.9,58.6,30.15,ESE,111,1.0,6.0,80,0.00,,,0.00,Wunderground v.1.15,2013-01-07 20:02:00,
2013-01-07 15:08:00,64.9,58.6,30.15,East,89,1.0,6.0,80,0.00,,,0.00,Wunderground v.1.15,2013-01-07 20:08:00,
2013-01-07 15:14:00,64.9,58.9,30.15,East,87,1.0,1.0,81,0.00,,,0.00,Wunderground v.1.15,2013-01-07 20:14:00,
2013-01-07 15:19:00,64.9,58.9,30.16,ENE,57,0.0,0.0,81,0.00,,,0.00,Wunderground v.1.15,2013-01-07 20:19:00,
2013-01-07 15:22:00,64.9,59.3,30.16,ENE,57,0.0,3.0,82,0.00,,,0.00,Wunderground v.1.15,2013-01-07 20:22:00,
2013-01-07 15:28:00,64.5,59.2,30.16,ENE,78,1.0,3.0,83,0.00,,,0.00,Wunderground v.1.15,2013-01-07 20:28:00,
2013-01-07 15:33:00,64.3,60.0,30.16,ENE,78,1.0,1.0,86,0.00,,,0.01,Wunderground v.1.15,2013-01-07 20:33:00,
2013-01-07 15:39:00,64.0,59.7,30.16,East,80,0.0,2.0,86,0.00,,,0.01,Wunderground v.1.15,2013-01-07 20:39:00,
2013-01-07 15:44:00,63.6,60.0,30.16,East,82,0.0,2.0,88,0.00,,,0.01,Wunderground v.1.15,2013-01-07 20:44:00,
2013-01-07 15:50:00,63.4,59.8,30.16,ESE,103,1.0,1.0,88,0.00,,,0.01,Wunderground v.1.15,2013-01-07 20:50:00,
2013-01-07 15:55:00,63.2,59.9,30.16,East,100,1.0,3.0,89,0.00,,,0.01,Wunderground v.1.15,2013-01-07 20:55:00,
2013-01-07 16:01:00,63.1,59.8,30.16,East,96,1.0,5.0,89,0.00,,,0.01,Wunderground v.1.15,2013-01-07 21:01:00,
2013-01-07 16:07:00,63.1,60.1,30.16,East,95,1.0,5.0,90,0.00,,,0.01,Wunderground v.1.15,2013-01-07 21:07:00,
2013-01-07 16:13:00,63.0,60.0,30.16,East,96,0.0,1.0,90,0.00,,,0.01,Wunderground v.1.15,2013-01-07 21:13:00,
2013-01-07 16:18:00,62.8,59.8,30.16,ENE,73,1.0,3.0,90,0.00,,,0.01,Wunderground v.1.15,2013-01-07 21:18:00,
2013-01-07 16:24:00,62.5,59.5,30.16,ENE,61,2.0,3.0,90,0.00,,,0.01,Wunderground v.1.15,2013-01-07 21:24:00,
2013-01-07 16:29:00,62.2,59.5,30.17,NE,52,1.0,1.0,91,0.00,,,0.01,Wunderground v.1.15,2013-01-07 21:29:00,
2013-01-07 16:35:00,62.1,59.7,30.17,ESE,114,0.0,4.0,92,0.00,,,0.02,Wunderground v.1.15,2013-01-07 21:35:00,
2013-01-07 16:41:00,61.8,59.5,30.17,East,79,1.0,1.0,92,0.00,,,0.02,Wunderground v.1.15,2013-01-07 21:41:00,
2013-01-07 16:46:00,61.7,59.4,30.17,NE,44,0.0,3.0,92,0.00,,,0.02,Wunderground v.1.15,2013-01-07 21:46:00,
2013-01-07 16:52:00,61.6,59.3,30.17,NE,46,1.0,3.0,92,0.00,,,0.02,Wunderground v.1.15,2013-01-07 21:52:00,
2013-01-07 16:57:00,61.4,59.1,30.17,NE,51,1.0,3.0,92,0.00,,,0.02,Wunderground v.1.15,2013-01-07 21:57:00,
2013-01-07 17:03:00,61.4,59.1,30.18,NE,46,0.0,4.0,92,0.00,,,0.02,Wunderground v.1.15,2013-01-07 22:03:00,
2013-01-07 17:08:00,61.4,59.1,30.18,NE,53,0.0,5.0,92,0.00,,,0.02,Wunderground v.1.15,2013-01-07 22:08:00,
2013-01-07 17:14:00,61.4,59.1,30.18,NE,49,1.0,2.0,92,0.00,,,0.02,Wunderground v.1.15,2013-01-07 22:14:00,
2013-01-07 17:20:00,61.4,59.1,30.18,ENE,71,1.0,1.0,92,0.00,,,0.02,Wunderground v.1.15,2013-01-07 22:20:00,
2013-01-07 17:25:00,61.4,59.1,30.18,ENE,71,0.0,1.0,92,0.00,,,0.02,Wunderground v.1.15,2013-01-07 22:25:00,
2013-01-07 17:31:00,61.3,59.3,30.18,ENE,71,0.0,0.0,93,0.00,,,0.02,Wunderground v.1.15,2013-01-07 22:31:00,
2013-01-07 17:36:00,61.4,59.4,30.18,ENE,72,0.0,0.0,93,0.00,,,0.02,Wunderground v.1.15,2013-01-07 22:36:00,
2013-01-07 17:42:00,61.3,59.3,30.18,ENE,71,0.0,0.0,93,0.00,,,0.02,Wunderground v.1.15,2013-01-07 22:42:00,
2013-01-07 17:47:00,61.3,59.3,30.18,NNE,24,0.0,0.0,93,0.00,,,0.02,Wunderground v.1.15,2013-01-07 22:47:00,
2013-01-07 17:53:00,61.4,59.4,30.18,NNE,22,1.0,2.0,93,0.00,,,0.02,Wunderground v.1.15,2013-01-07 22:53:00,
2013-01-07 17:58:00,61.4,59.4,30.18,NNE,24,0.0,5.0,93,0.00,,,0.02,Wunderground v.1.15,2013-01-07 22:58:00,
2013-01-07 18:04:00,61.4,59.4,30.19,East,92,1.0,4.0,93,0.00,,,0.02,Wunderground v.1.15,2013-01-07 23:04:00,
2013-01-07 18:09:00,61.5,59.5,30.19,East,91,0.0,0.0,93,0.00,,,0.02,Wunderground v.1.15,2013-01-07 23:09:00,
2013-01-07 18:15:00,61.6,59.3,30.19,NE,46,0.0,2.0,92,0.00,,,0.02,Wunderground v.1.15,2013-01-07 23:15:00,
2013-01-07 18:20:00,61.6,59.3,30.19,East,100,1.0,5.0,92,0.00,,,0.02,Wunderground v.1.15,2013-01-07 23:20:00,
2013-01-07 18:26:00,61.7,59.4,30.19,East,97,0.0,5.0,92,0.00,,,0.02,Wunderground v.1.15,2013-01-07 23:26:00,
2013-01-07 18:31:00,61.8,59.5,30.19,NE,47,1.0,3.0,92,0.00,,,0.02,Wunderground v.1.15,2013-01-07 23:31:00,
2013-01-07 18:37:00,61.9,59.5,30.19,ENE,69,1.0,3.0,92,0.00,,,0.02,Wunderground v.1.15,2013-01-07 23:37:00,
2013-01-07 18:43:00,62.0,59.6,30.19,NE,51,0.0,1.0,92,0.00,,,0.02,Wunderground v.1.15,2013-01-07 23:43:00,
2013-01-07 18:48:00,62.1,59.7,30.19,NE,51,0.0,2.0,92,0.00,,,0.02,Wunderground v.1.15,2013-01-07 23:48:00,
2013-01-07 18:54:00,62.2,59.8,30.19,ENE,61,0.0,4.0,92,0.00,,,0.02,Wunderground v.1.15,2013-01-07 23:54:00,
2013-01-07 18:59:00,62.3,59.9,30.19,NE,45,1.0,1.0,92,0.00,,,0.02,Wunderground v.1.15,2013-01-07 23:59:00,
2013-01-07 19:05:00,62.3,59.9,30.19,ENE,67,1.0,5.0,92,0.00,,,0.02,Wunderground v.1.15,2013-01-08 00:05:00,
2013-01-07 19:11:00,62.4,60.0,30.19,ENE,67,1.0,3.0,92,0.00,,,0.03,Wunderground v.1.15,2013-01-08 00:11:00,
2013-01-07 19:16:00,62.5,60.1,30.19,ENE,62,1.0,3.0,92,0.00,,,0.03,Wunderground v.1.15,2013-01-08 00:16:00,
2013-01-07 19:22:00,62.5,60.1,30.20,ENE,69,1.0,1.0,92,0.00,,,0.03,Wunderground v.1.15,2013-01-08 00:22:00,
2013-01-07 19:27:00,62.6,60.2,30.20,NNE,32,0.0,1.0,92,0.00,,,0.03,Wunderground v.1.15,2013-01-08 00:27:00,
2013-01-07 19:33:00,62.6,60.2,30.20,ENE,62,0.0,0.0,92,0.00,,,0.03,Wunderground v.1.15,2013-01-08 00:33:00,
2013-01-07 19:38:00,62.7,60.3,30.20,ENE,58,0.0,1.0,92,0.00,,,0.03,Wunderground v.1.15,2013-01-08 00:38:00,
2013-01-07 19:44:00,62.7,60.3,30.20,NE,56,0.0,0.0,92,0.00,,,0.03,Wunderground v.1.15,2013-01-08 00:44:00,
2013-01-07 19:49:00,62.7,60.3,30.20,North,11,1.0,1.0,92,0.00,,,0.03,Wunderground v.1.15,2013-01-08 00:49:00,
2013-01-07 19:55:00,62.7,60.3,30.20,NE,44,1.0,3.0,92,0.00,,,0.03,Wunderground v.1.15,2013-01-08 00:55:00,
2013-01-07 20:00:00,62.7,60.3,30.20,NE,44,1.0,5.0,92,0.00,,,0.03,Wunderground v.1.15,2013-01-08 01:00:00,
2013-01-07 20:06:00,62.8,60.4,30.20,NE,41,0.0,5.0,92,0.00,,,0.03,Wunderground v.1.15,2013-01-08 01:06:00,
2013-01-07 20:12:00,62.8,60.4,30.20,NE,41,0.0,0.0,92,0.00,,,0.03,Wunderground v.1.15,2013-01-08 01:12:00,
2013-01-07 20:17:00,62.8,60.4,30.20,NE,45,0.0,4.0,92,0.00,,,0.03,Wunderground v.1.15,2013-01-08 01:17:00,
2013-01-07 20:23:00,62.9,60.5,30.20,North,355,0.0,1.0,92,0.00,,,0.03,Wunderground v.1.15,2013-01-08 01:23:00,
2013-01-07 20:29:00,62.9,60.5,30.20,NE,49,1.0,1.0,92,0.00,,,0.03,Wunderground v.1.15,2013-01-08 01:29:00,
2013-01-07 20:35:00,62.9,60.5,30.20,East,86,1.0,1.0,92,0.00,,,0.03,Wunderground v.1.15,2013-01-08 01:35:00,
2013-01-07 20:40:00,62.9,60.5,30.20,North,360,0.0,2.0,92,0.00,,,0.03,Wunderground v.1.15,2013-01-08 01:40:00,
2013-01-07 20:46:00,62.9,60.5,30.20,NE,36,0.0,3.0,92,0.00,,,0.03,Wunderground v.1.15,2013-01-08 01:46:00,
2013-01-07 20:52:00,62.9,60.5,30.20,NE,36,0.0,0.0,92,0.00,,,0.03,Wunderground v.1.15,2013-01-08 01:52:00,
2013-01-07 20:57:00,62.9,60.5,30.20,East,88,0.0,0.0,92,0.00,,,0.03,Wunderground v.1.15,2013-01-08 01:57:00,
2013-01-07 21:03:00,62.9,60.5,30.20,East,87,0.0,4.0,92,0.00,,,0.03,Wunderground v.1.15,2013-01-08 02:03:00,
2013-01-07 21:08:00,62.9,60.5,30.20,NNE,26,0.0,4.0,92,0.00,,,0.03,Wunderground v.1.15,2013-01-08 02:08:00,
2013-01-07 21:14:00,62.9,60.5,30.20,NNE,30,0.0,0.0,92,0.00,,,0.03,Wunderground v.1.15,2013-01-08 02:14:00,
2013-01-07 21:20:00,63.0,60.6,30.19,ESE,117,0.0,0.0,92,0.00,,,0.03,Wunderground v.1.15,2013-01-08 02:20:00,
2013-01-07 21:26:00,63.0,60.6,30.19,East,83,0.0,2.0,92,0.00,,,0.03,Wunderground v.1.15,2013-01-08 02:26:00,
2013-01-07 21:31:00,62.9,60.5,30.19,ENE,78,0.0,3.0,92,0.00,,,0.03,Wunderground v.1.15,2013-01-08 02:31:00,
2013-01-07 21:37:00,62.9,60.5,30.19,ENE,78,0.0,3.0,92,0.00,,,0.03,Wunderground v.1.15,2013-01-08 02:37:00,
2013-01-07 21:42:00,62.9,60.5,30.20,ENE,78,0.0,0.0,92,0.00,,,0.03,Wunderground v.1.15,2013-01-08 02:42:00,
2013-01-07 21:48:00,62.8,60.4,30.19,NNW,333,0.0,2.0,92,0.00,,,0.03,Wunderground v.1.15,2013-01-08 02:48:00,
2013-01-07 21:54:00,62.8,60.7,30.19,ENE,76,0.0,0.0,93,0.00,,,0.03,Wunderground v.1.15,2013-01-08 02:54:00,
2013-01-07 21:59:00,62.8,60.7,30.19,NNE,16,0.0,0.0,93,0.00,,,0.03,Wunderground v.1.15,2013-01-08 02:59:00,
2013-01-07 22:05:00,62.8,60.7,30.20,NNE,17,0.0,5.0,93,0.00,,,0.03,Wunderground v.1.15,2013-01-08 03:05:00,
2013-01-07 22:11:00,62.7,60.6,30.20,NNE,17,0.0,0.0,93,0.00,,,0.03,Wunderground v.1.15,2013-01-08 03:11:00,
2013-01-07 22:16:00,62.7,60.6,30.19,NNE,25,0.0,0.0,93,0.00,,,0.03,Wunderground v.1.15,2013-01-08 03:16:00,
2013-01-07 22:23:00,62.6,60.5,30.19,NNE,25,0.0,0.0,93,0.00,,,0.03,Wunderground v.1.15,2013-01-08 03:23:00,
2013-01-07 22:29:00,62.6,60.5,30.19,ENE,66,0.0,2.0,93,0.00,,,0.03,Wunderground v.1.15,2013-01-08 03:29:00,
2013-01-07 22:34:00,62.5,60.4,30.19,ENE,66,0.0,0.0,93,0.00,,,0.03,Wunderground v.1.15,2013-01-08 03:34:00,
2013-01-07 22:41:00,62.5,60.4,30.19,ENE,66,0.0,0.0,93,0.00,,,0.03,Wunderground v.1.15,2013-01-08 03:41:00,
2013-01-07 22:47:00,62.4,60.3,30.19,ENE,66,0.0,0.0,93,0.00,,,0.03,Wunderground v.1.15,2013-01-08 03:47:00,
2013-01-07 22:52:00,62.3,60.6,30.19,ENE,65,0.0,0.0,94,0.00,,,0.03,Wunderground v.1.15,2013-01-08 03:52:00,
2013-01-07 22:59:00,62.3,60.6,30.19,ENE,63,0.0,0.0,94,0.00,,,0.03,Wunderground v.1.15,2013-01-08 03:59:00,
2013-01-07 23:05:00,62.3,60.6,30.18,ENE,63,0.0,5.0,94,0.00,,,0.03,Wunderground v.1.15,2013-01-08 04:05:00,
2013-01-07 23:10:00,62.3,60.6,30.18,ENE,63,0.0,0.0,94,0.00,,,0.03,Wunderground v.1.15,2013-01-08 04:10:00,
2013-01-07 23:16:00,62.3,60.6,30.18,ENE,63,0.0,0.0,94,0.00,,,0.03,Wunderground v.1.15,2013-01-08 04:16:00,
2013-01-07 23:21:00,62.3,60.6,30.18,ENE,63,0.0,0.0,94,0.00,,,0.03,Wunderground v.1.15,2013-01-08 04:21:00,
2013-01-07 23:27:00,62.3,60.6,30.18,ENE,63,0.0,0.0,94,0.00,,,0.03,Wunderground v.1.15,2013-01-08 04:27:00,
2013-01-07 23:32:00,62.3,60.6,30.18,ENE,63,0.0,0.0,94,0.00,,,0.03,Wunderground v.1.15,2013-01-08 04:32:00,
2013-01-07 23:38:00,62.2,60.5,30.18,ENE,63,0.0,0.0,94,0.00,,,0.03,Wunderground v.1.15,2013-01-08 04:38:00,
2013-01-07 23:44:00,62.2,60.5,30.18,ENE,63,0.0,0.0,94,0.00,,,0.03,Wunderground v.1.15,2013-01-08 04:44:00,
2013-01-07 23:49:00,62.1,60.4,30.18,ENE,63,0.0,0.0,94,0.00,,,0.03,Wunderground v.1.15,2013-01-08 04:49:00,
2013-01-07 23:55:00,62.1,60.4,30.18,ENE,63,0.0,0.0,94,0.00,,,0.03,Wunderground v.1.15,2013-01-08 04:55:00,